sensor_id;sensor_type;location;lat;lon;timestamp;temperature;humidity
3312;DHT22;1668;49.648;8.570;2023-05-07T00:00:48;17.30;1.00
3312;DHT22;1668;49.648;8.570;2023-05-07T00:03:15;17.30;1.00
3312;DHT22;1668;49.648;8.570;2023-05-07T00:05:43;17.30;1.00
3312;DHT22;1668;49.648;8.570;2023-05-07T00:08:10;17.20;1.00
3312;DHT22;1668;49.648;8.570;2023-05-07T00:10:37;17.20;1.00
3312;DHT22;1668;49.648;8.570;2023-05-07T00:13:04;17.20;1.00
3312;DHT22;1668;49.648;8.570;2023-05-07T00:15:31;17.20;1.00
3312;DHT22;1668;49.648;8.570;2023-05-07T00:17:58;17.10;1.00
3312;DHT22;1668;49.648;8.570;2023-05-07T00:20:25;17.00;1.00
3312;DHT22;1668;49.648;8.570;2023-05-07T00:22:54;17.00;1.00
3312;DHT22;1668;49.648;8.570;2023-05-07T00:25:20;17.00;1.00
3312;DHT22;1668;49.648;8.570;2023-05-07T00:27:47;16.90;1.00
3312;DHT22;1668;49.648;8.570;2023-05-07T00:30:14;16.90;1.00
3312;DHT22;1668;49.648;8.570;2023-05-07T00:32:41;16.90;1.00
3312;DHT22;1668;49.648;8.570;2023-05-07T00:35:11;16.90;1.00
3312;DHT22;1668;49.648;8.570;2023-05-07T00:37:38;16.80;1.00
3312;DHT22;1668;49.648;8.570;2023-05-07T00:40:08;16.80;1.00
3312;DHT22;1668;49.648;8.570;2023-05-07T00:42:35;16.80;93.80
3312;DHT22;1668;49.648;8.570;2023-05-07T00:45:02;16.80;99.90
3312;DHT22;1668;49.648;8.570;2023-05-07T00:47:29;16.80;96.70
3312;DHT22;1668;49.648;8.570;2023-05-07T00:49:57;16.70;96.20
3312;DHT22;1668;49.648;8.570;2023-05-07T00:52:25;16.70;99.90
3312;DHT22;1668;49.648;8.570;2023-05-07T00:54:52;16.70;99.90
3312;DHT22;1668;49.648;8.570;2023-05-07T00:57:24;16.70;99.90
3312;DHT22;1668;49.648;8.570;2023-05-07T00:59:51;16.70;99.90
3312;DHT22;1668;49.648;8.570;2023-05-07T01:02:18;16.60;99.90
3312;DHT22;1668;49.648;8.570;2023-05-07T01:04:45;16.60;99.90
3312;DHT22;1668;49.648;8.570;2023-05-07T01:07:13;16.60;99.90
3312;DHT22;1668;49.648;8.570;2023-05-07T01:09:41;16.60;99.90
3312;DHT22;1668;49.648;8.570;2023-05-07T01:12:08;16.50;99.90
3312;DHT22;1668;49.648;8.570;2023-05-07T01:14:36;16.50;99.90
3312;DHT22;1668;49.648;8.570;2023-05-07T01:17:03;16.50;99.90
3312;DHT22;1668;49.648;8.570;2023-05-07T01:19:31;16.40;1.00
3312;DHT22;1668;49.648;8.570;2023-05-07T01:22:03;16.40;1.00
3312;DHT22;1668;49.648;8.570;2023-05-07T01:24:32;16.30;1.00
3312;DHT22;1668;49.648;8.570;2023-05-07T01:26:59;16.30;1.00
3312;DHT22;1668;49.648;8.570;2023-05-07T01:29:28;16.30;1.00
3312;DHT22;1668;49.648;8.570;2023-05-07T01:31:56;16.30;1.00
3312;DHT22;1668;49.648;8.570;2023-05-07T01:34:25;16.30;1.00
3312;DHT22;1668;49.648;8.570;2023-05-07T01:36:54;16.30;1.00
3312;DHT22;1668;49.648;8.570;2023-05-07T01:39:24;16.20;1.00
3312;DHT22;1668;49.648;8.570;2023-05-07T01:41:54;16.20;1.00
3312;DHT22;1668;49.648;8.570;2023-05-07T01:44:22;16.20;1.00
3312;DHT22;1668;49.648;8.570;2023-05-07T01:46:49;16.20;34.50
3312;DHT22;1668;49.648;8.570;2023-05-07T01:49:16;16.10;99.90
3312;DHT22;1668;49.648;8.570;2023-05-07T01:51:43;16.10;99.90
3312;DHT22;1668;49.648;8.570;2023-05-07T01:54:11;16.10;99.90
3312;DHT22;1668;49.648;8.570;2023-05-07T01:56:38;16.00;99.90
3312;DHT22;1668;49.648;8.570;2023-05-07T01:59:07;16.00;99.90
3312;DHT22;1668;49.648;8.570;2023-05-07T02:01:34;16.00;99.90
3312;DHT22;1668;49.648;8.570;2023-05-07T02:04:01;15.90;99.90
3312;DHT22;1668;49.648;8.570;2023-05-07T02:06:28;15.90;99.90
3312;DHT22;1668;49.648;8.570;2023-05-07T02:08:55;15.90;1.00
3312;DHT22;1668;49.648;8.570;2023-05-07T02:11:22;15.90;1.00
3312;DHT22;1668;49.648;8.570;2023-05-07T02:13:49;15.80;1.00
3312;DHT22;1668;49.648;8.570;2023-05-07T02:16:17;15.80;53.40
3312;DHT22;1668;49.648;8.570;2023-05-07T02:18:45;15.80;1.00
3312;DHT22;1668;49.648;8.570;2023-05-07T02:21:12;15.70;1.00
3312;DHT22;1668;49.648;8.570;2023-05-07T02:23:39;15.60;99.90
3312;DHT22;1668;49.648;8.570;2023-05-07T02:26:06;15.60;1.00
3312;DHT22;1668;49.648;8.570;2023-05-07T02:28:33;15.60;1.00
3312;DHT22;1668;49.648;8.570;2023-05-07T02:31:02;15.50;1.00
3312;DHT22;1668;49.648;8.570;2023-05-07T02:33:30;15.60;1.00
3312;DHT22;1668;49.648;8.570;2023-05-07T02:36:05;15.60;91.90
3312;DHT22;1668;49.648;8.570;2023-05-07T02:38:32;15.60;99.90
3312;DHT22;1668;49.648;8.570;2023-05-07T02:40:59;15.60;99.90
3312;DHT22;1668;49.648;8.570;2023-05-07T02:43:26;15.60;1.00
3312;DHT22;1668;49.648;8.570;2023-05-07T02:46:00;15.50;95.20
3312;DHT22;1668;49.648;8.570;2023-05-07T02:48:27;15.50;4.70
3312;DHT22;1668;49.648;8.570;2023-05-07T02:50:56;15.40;1.00
3312;DHT22;1668;49.648;8.570;2023-05-07T02:53:23;15.40;99.90
3312;DHT22;1668;49.648;8.570;2023-05-07T02:55:52;15.40;99.90
3312;DHT22;1668;49.648;8.570;2023-05-07T02:58:19;15.30;99.90
3312;DHT22;1668;49.648;8.570;2023-05-07T03:00:46;15.20;1.00
3312;DHT22;1668;49.648;8.570;2023-05-07T03:03:13;15.20;99.90
3312;DHT22;1668;49.648;8.570;2023-05-07T03:05:40;15.20;1.00
3312;DHT22;1668;49.648;8.570;2023-05-07T03:08:09;15.10;1.00
3312;DHT22;1668;49.648;8.570;2023-05-07T03:10:36;15.10;75.80
3312;DHT22;1668;49.648;8.570;2023-05-07T03:13:03;15.00;99.90
3312;DHT22;1668;49.648;8.570;2023-05-07T03:15:30;14.90;1.00
3312;DHT22;1668;49.648;8.570;2023-05-07T03:17:57;15.00;1.00
3312;DHT22;1668;49.648;8.570;2023-05-07T03:20:24;14.90;1.00
3312;DHT22;1668;49.648;8.570;2023-05-07T03:22:51;15.00;1.00
3312;DHT22;1668;49.648;8.570;2023-05-07T03:25:19;15.00;99.90
3312;DHT22;1668;49.648;8.570;2023-05-07T03:27:46;15.00;99.90
3312;DHT22;1668;49.648;8.570;2023-05-07T03:30:13;15.00;99.90
3312;DHT22;1668;49.648;8.570;2023-05-07T03:32:40;15.00;1.00
3312;DHT22;1668;49.648;8.570;2023-05-07T03:35:07;15.00;99.90
3312;DHT22;1668;49.648;8.570;2023-05-07T03:37:34;14.90;99.90
3312;DHT22;1668;49.648;8.570;2023-05-07T03:40:01;14.90;1.00
3312;DHT22;1668;49.648;8.570;2023-05-07T03:42:30;14.90;1.00
3312;DHT22;1668;49.648;8.570;2023-05-07T03:44:57;14.90;99.90
3312;DHT22;1668;49.648;8.570;2023-05-07T03:47:24;14.90;99.90
3312;DHT22;1668;49.648;8.570;2023-05-07T03:49:51;14.90;99.90
3312;DHT22;1668;49.648;8.570;2023-05-07T03:52:19;14.90;99.90
3312;DHT22;1668;49.648;8.570;2023-05-07T03:54:51;14.80;1.00
3312;DHT22;1668;49.648;8.570;2023-05-07T03:57:18;14.80;1.00
3312;DHT22;1668;49.648;8.570;2023-05-07T03:59:46;14.80;1.00
3312;DHT22;1668;49.648;8.570;2023-05-07T04:02:13;14.80;1.00
3312;DHT22;1668;49.648;8.570;2023-05-07T04:04:40;14.80;99.90
3312;DHT22;1668;49.648;8.570;2023-05-07T04:07:07;14.70;1.00
3312;DHT22;1668;49.648;8.570;2023-05-07T04:09:35;14.70;1.00
3312;DHT22;1668;49.648;8.570;2023-05-07T04:12:03;14.70;1.00
3312;DHT22;1668;49.648;8.570;2023-05-07T04:14:30;14.70;1.00
3312;DHT22;1668;49.648;8.570;2023-05-07T04:16:59;14.70;99.90
3312;DHT22;1668;49.648;8.570;2023-05-07T04:19:26;14.70;1.00
3312;DHT22;1668;49.648;8.570;2023-05-07T04:21:53;14.70;1.00
3312;DHT22;1668;49.648;8.570;2023-05-07T04:24:20;14.70;1.00
3312;DHT22;1668;49.648;8.570;2023-05-07T04:26:47;14.70;1.00
3312;DHT22;1668;49.648;8.570;2023-05-07T04:29:13;14.70;1.00
3312;DHT22;1668;49.648;8.570;2023-05-07T04:31:40;14.60;99.90
3312;DHT22;1668;49.648;8.570;2023-05-07T04:34:11;14.60;99.90
3312;DHT22;1668;49.648;8.570;2023-05-07T04:36:38;14.60;99.90
3312;DHT22;1668;49.648;8.570;2023-05-07T04:39:05;14.60;1.00
3312;DHT22;1668;49.648;8.570;2023-05-07T04:41:32;14.60;1.00
3312;DHT22;1668;49.648;8.570;2023-05-07T04:43:59;14.60;1.00
3312;DHT22;1668;49.648;8.570;2023-05-07T04:46:27;14.60;1.00
3312;DHT22;1668;49.648;8.570;2023-05-07T04:48:54;14.60;1.00
3312;DHT22;1668;49.648;8.570;2023-05-07T04:51:22;14.60;1.00
3312;DHT22;1668;49.648;8.570;2023-05-07T04:53:49;14.60;20.90
3312;DHT22;1668;49.648;8.570;2023-05-07T04:56:16;14.70;99.90
3312;DHT22;1668;49.648;8.570;2023-05-07T04:58:43;14.60;99.90
3312;DHT22;1668;49.648;8.570;2023-05-07T05:01:10;14.60;1.00
3312;DHT22;1668;49.648;8.570;2023-05-07T05:03:37;14.60;99.90
3312;DHT22;1668;49.648;8.570;2023-05-07T05:06:05;14.60;1.00
3312;DHT22;1668;49.648;8.570;2023-05-07T05:08:33;14.60;1.00
3312;DHT22;1668;49.648;8.570;2023-05-07T05:11:01;14.60;1.00
3312;DHT22;1668;49.648;8.570;2023-05-07T05:13:27;14.70;1.00
3312;DHT22;1668;49.648;8.570;2023-05-07T05:15:55;14.70;1.00
3312;DHT22;1668;49.648;8.570;2023-05-07T05:18:22;14.70;1.00
3312;DHT22;1668;49.648;8.570;2023-05-07T05:20:51;14.80;1.00
3312;DHT22;1668;49.648;8.570;2023-05-07T05:23:18;14.80;1.00
3312;DHT22;1668;49.648;8.570;2023-05-07T05:25:47;14.80;1.00
3312;DHT22;1668;49.648;8.570;2023-05-07T05:28:13;14.90;1.00
3312;DHT22;1668;49.648;8.570;2023-05-07T05:30:40;14.90;1.00
3312;DHT22;1668;49.648;8.570;2023-05-07T05:33:07;14.90;99.90
3312;DHT22;1668;49.648;8.570;2023-05-07T05:35:34;14.90;99.90
3312;DHT22;1668;49.648;8.570;2023-05-07T05:38:02;14.90;1.00
3312;DHT22;1668;49.648;8.570;2023-05-07T05:40:29;15.00;1.00
3312;DHT22;1668;49.648;8.570;2023-05-07T05:42:57;15.00;1.00
3312;DHT22;1668;49.648;8.570;2023-05-07T05:45:24;15.10;99.90
3312;DHT22;1668;49.648;8.570;2023-05-07T05:47:51;15.10;99.90
3312;DHT22;1668;49.648;8.570;2023-05-07T05:50:18;15.10;99.90
3312;DHT22;1668;49.648;8.570;2023-05-07T05:52:45;15.20;99.90
3312;DHT22;1668;49.648;8.570;2023-05-07T05:55:12;15.20;99.90
3312;DHT22;1668;49.648;8.570;2023-05-07T05:57:39;15.20;99.90
3312;DHT22;1668;49.648;8.570;2023-05-07T06:00:09;15.20;99.90
3312;DHT22;1668;49.648;8.570;2023-05-07T06:02:37;15.20;1.00
3312;DHT22;1668;49.648;8.570;2023-05-07T06:05:04;15.20;1.00
3312;DHT22;1668;49.648;8.570;2023-05-07T06:07:32;15.30;99.90
3312;DHT22;1668;49.648;8.570;2023-05-07T06:10:00;15.30;99.90
3312;DHT22;1668;49.648;8.570;2023-05-07T06:12:27;15.30;99.90
3312;DHT22;1668;49.648;8.570;2023-05-07T06:14:54;15.30;1.00
3312;DHT22;1668;49.648;8.570;2023-05-07T06:17:22;15.40;1.00
3312;DHT22;1668;49.648;8.570;2023-05-07T06:19:49;15.40;1.00
3312;DHT22;1668;49.648;8.570;2023-05-07T06:22:16;15.30;1.00
3312;DHT22;1668;49.648;8.570;2023-05-07T06:24:43;15.30;1.00
3312;DHT22;1668;49.648;8.570;2023-05-07T06:27:10;15.30;99.90
3312;DHT22;1668;49.648;8.570;2023-05-07T06:29:37;15.40;99.90
3312;DHT22;1668;49.648;8.570;2023-05-07T06:32:08;15.40;63.50
3312;DHT22;1668;49.648;8.570;2023-05-07T06:34:37;15.40;38.90
3312;DHT22;1668;49.648;8.570;2023-05-07T06:37:04;15.50;97.60
3312;DHT22;1668;49.648;8.570;2023-05-07T06:39:32;15.50;18.70
3312;DHT22;1668;49.648;8.570;2023-05-07T06:41:59;15.60;1.00
3312;DHT22;1668;49.648;8.570;2023-05-07T06:44:26;15.60;1.00
3312;DHT22;1668;49.648;8.570;2023-05-07T06:46:53;15.60;1.00
3312;DHT22;1668;49.648;8.570;2023-05-07T06:49:20;15.70;1.00
3312;DHT22;1668;49.648;8.570;2023-05-07T06:51:48;15.70;1.00
3312;DHT22;1668;49.648;8.570;2023-05-07T06:54:15;15.80;1.00
3312;DHT22;1668;49.648;8.570;2023-05-07T06:56:42;15.80;99.90
3312;DHT22;1668;49.648;8.570;2023-05-07T06:59:09;15.90;99.90
3312;DHT22;1668;49.648;8.570;2023-05-07T07:01:36;16.00;99.90
3312;DHT22;1668;49.648;8.570;2023-05-07T07:04:03;16.00;99.90
3312;DHT22;1668;49.648;8.570;2023-05-07T07:06:30;16.10;1.00
3312;DHT22;1668;49.648;8.570;2023-05-07T07:08:59;16.10;99.90
3312;DHT22;1668;49.648;8.570;2023-05-07T07:11:26;16.20;1.00
3312;DHT22;1668;49.648;8.570;2023-05-07T07:13:53;16.30;99.90
3312;DHT22;1668;49.648;8.570;2023-05-07T07:16:21;16.30;1.00
3312;DHT22;1668;49.648;8.570;2023-05-07T07:18:48;16.40;86.60
3312;DHT22;1668;49.648;8.570;2023-05-07T07:21:15;16.50;99.90
3312;DHT22;1668;49.648;8.570;2023-05-07T07:23:41;16.50;99.90
3312;DHT22;1668;49.648;8.570;2023-05-07T07:26:10;16.60;99.90
3312;DHT22;1668;49.648;8.570;2023-05-07T07:28:42;16.70;1.00
3312;DHT22;1668;49.648;8.570;2023-05-07T07:31:09;16.70;99.90
3312;DHT22;1668;49.648;8.570;2023-05-07T07:33:36;16.80;99.90
3312;DHT22;1668;49.648;8.570;2023-05-07T07:36:04;16.80;21.60
3312;DHT22;1668;49.648;8.570;2023-05-07T07:38:31;16.80;99.90
3312;DHT22;1668;49.648;8.570;2023-05-07T07:40:58;16.90;1.00
3312;DHT22;1668;49.648;8.570;2023-05-07T07:43:26;17.00;1.00
3312;DHT22;1668;49.648;8.570;2023-05-07T07:45:54;17.00;99.90
3312;DHT22;1668;49.648;8.570;2023-05-07T07:48:20;17.10;1.00
3312;DHT22;1668;49.648;8.570;2023-05-07T07:50:48;17.10;99.90
3312;DHT22;1668;49.648;8.570;2023-05-07T07:53:16;17.10;1.00
3312;DHT22;1668;49.648;8.570;2023-05-07T07:55:43;17.10;1.00
3312;DHT22;1668;49.648;8.570;2023-05-07T07:58:10;17.20;1.00
3312;DHT22;1668;49.648;8.570;2023-05-07T08:00:38;17.20;1.00
3312;DHT22;1668;49.648;8.570;2023-05-07T08:03:05;17.20;1.00
3312;DHT22;1668;49.648;8.570;2023-05-07T08:05:32;17.20;1.00
3312;DHT22;1668;49.648;8.570;2023-05-07T08:08:00;17.30;99.90
3312;DHT22;1668;49.648;8.570;2023-05-07T08:10:27;17.30;1.00
3312;DHT22;1668;49.648;8.570;2023-05-07T08:12:54;17.40;36.90
3312;DHT22;1668;49.648;8.570;2023-05-07T08:15:21;17.40;99.90
3312;DHT22;1668;49.648;8.570;2023-05-07T08:17:49;17.50;99.90
3312;DHT22;1668;49.648;8.570;2023-05-07T08:20:16;17.50;1.00
3312;DHT22;1668;49.648;8.570;2023-05-07T08:22:43;17.60;99.90
3312;DHT22;1668;49.648;8.570;2023-05-07T08:25:10;17.60;1.00
3312;DHT22;1668;49.648;8.570;2023-05-07T08:27:37;17.70;1.00
3312;DHT22;1668;49.648;8.570;2023-05-07T08:30:05;17.70;1.00
3312;DHT22;1668;49.648;8.570;2023-05-07T08:32:32;17.70;1.00
3312;DHT22;1668;49.648;8.570;2023-05-07T08:35:00;17.80;1.00
3312;DHT22;1668;49.648;8.570;2023-05-07T08:37:27;17.80;99.90
3312;DHT22;1668;49.648;8.570;2023-05-07T08:39:54;17.90;99.90
3312;DHT22;1668;49.648;8.570;2023-05-07T08:42:23;17.90;99.90
3312;DHT22;1668;49.648;8.570;2023-05-07T08:44:51;18.00;1.00
3312;DHT22;1668;49.648;8.570;2023-05-07T08:47:21;18.10;1.00
3312;DHT22;1668;49.648;8.570;2023-05-07T08:49:49;18.20;1.00
3312;DHT22;1668;49.648;8.570;2023-05-07T08:52:18;18.30;1.00
3312;DHT22;1668;49.648;8.570;2023-05-07T08:54:45;18.30;1.00
3312;DHT22;1668;49.648;8.570;2023-05-07T08:57:13;18.40;88.40
3312;DHT22;1668;49.648;8.570;2023-05-07T08:59:40;18.50;1.00
3312;DHT22;1668;49.648;8.570;2023-05-07T09:02:09;18.60;1.00
3312;DHT22;1668;49.648;8.570;2023-05-07T09:04:36;18.70;1.00
3312;DHT22;1668;49.648;8.570;2023-05-07T09:07:04;18.80;1.00
3312;DHT22;1668;49.648;8.570;2023-05-07T09:09:33;18.90;1.00
3312;DHT22;1668;49.648;8.570;2023-05-07T09:12:00;19.00;1.00
3312;DHT22;1668;49.648;8.570;2023-05-07T09:14:29;19.10;1.00
3312;DHT22;1668;49.648;8.570;2023-05-07T09:16:56;19.20;99.90
3312;DHT22;1668;49.648;8.570;2023-05-07T09:19:23;19.30;99.90
3312;DHT22;1668;49.648;8.570;2023-05-07T09:21:58;19.40;99.90
3312;DHT22;1668;49.648;8.570;2023-05-07T09:24:26;19.50;99.90
3312;DHT22;1668;49.648;8.570;2023-05-07T09:26:57;19.60;99.90
3312;DHT22;1668;49.648;8.570;2023-05-07T09:29:25;19.80;99.90
3312;DHT22;1668;49.648;8.570;2023-05-07T09:31:54;19.90;69.60
3312;DHT22;1668;49.648;8.570;2023-05-07T09:34:21;20.00;1.00
3312;DHT22;1668;49.648;8.570;2023-05-07T09:36:48;20.10;7.70
3312;DHT22;1668;49.648;8.570;2023-05-07T09:39:15;20.20;10.70
3312;DHT22;1668;49.648;8.570;2023-05-07T09:41:46;20.30;1.00
3312;DHT22;1668;49.648;8.570;2023-05-07T09:44:18;20.30;1.00
3312;DHT22;1668;49.648;8.570;2023-05-07T09:46:47;20.30;1.00
3312;DHT22;1668;49.648;8.570;2023-05-07T09:49:21;20.40;1.00
3312;DHT22;1668;49.648;8.570;2023-05-07T09:51:49;20.50;1.00
3312;DHT22;1668;49.648;8.570;2023-05-07T09:54:16;20.60;1.00
3312;DHT22;1668;49.648;8.570;2023-05-07T09:56:44;20.70;1.00
3312;DHT22;1668;49.648;8.570;2023-05-07T09:59:13;20.70;1.00
3312;DHT22;1668;49.648;8.570;2023-05-07T10:01:43;20.80;1.00
3312;DHT22;1668;49.648;8.570;2023-05-07T10:04:11;20.80;1.00
3312;DHT22;1668;49.648;8.570;2023-05-07T10:06:38;20.80;1.00
3312;DHT22;1668;49.648;8.570;2023-05-07T10:09:05;20.90;1.00
3312;DHT22;1668;49.648;8.570;2023-05-07T10:11:32;20.90;1.00
3312;DHT22;1668;49.648;8.570;2023-05-07T10:14:00;21.00;1.00
3312;DHT22;1668;49.648;8.570;2023-05-07T10:16:28;21.10;1.00
3312;DHT22;1668;49.648;8.570;2023-05-07T10:18:59;21.30;1.00
3312;DHT22;1668;49.648;8.570;2023-05-07T10:21:27;21.40;1.00
3312;DHT22;1668;49.648;8.570;2023-05-07T10:23:59;21.50;1.00
3312;DHT22;1668;49.648;8.570;2023-05-07T10:26:29;21.70;1.00
3312;DHT22;1668;49.648;8.570;2023-05-07T10:29:01;21.90;1.00
3312;DHT22;1668;49.648;8.570;2023-05-07T10:31:50;22.10;1.00
3312;DHT22;1668;49.648;8.570;2023-05-07T10:34:23;22.30;1.00
3312;DHT22;1668;49.648;8.570;2023-05-07T10:36:51;22.40;1.00
3312;DHT22;1668;49.648;8.570;2023-05-07T10:39:19;22.70;1.00
3312;DHT22;1668;49.648;8.570;2023-05-07T10:41:47;22.80;1.00
3312;DHT22;1668;49.648;8.570;2023-05-07T10:44:25;23.00;1.00
3312;DHT22;1668;49.648;8.570;2023-05-07T10:47:15;23.20;1.00
3312;DHT22;1668;49.648;8.570;2023-05-07T10:50:21;23.20;1.00
3312;DHT22;1668;49.648;8.570;2023-05-07T10:56:26;23.50;1.00
3312;DHT22;1668;49.648;8.570;2023-05-07T10:59:33;23.60;1.00
3312;DHT22;1668;49.648;8.570;2023-05-07T11:02:06;23.60;1.00
3312;DHT22;1668;49.648;8.570;2023-05-07T11:04:35;23.80;1.00
3312;DHT22;1668;49.648;8.570;2023-05-07T11:07:26;23.80;1.00
3312;DHT22;1668;49.648;8.570;2023-05-07T11:10:03;24.00;1.00
3312;DHT22;1668;49.648;8.570;2023-05-07T11:12:51;24.20;1.00
3312;DHT22;1668;49.648;8.570;2023-05-07T11:15:38;24.40;1.00
3312;DHT22;1668;49.648;8.570;2023-05-07T11:18:07;24.40;1.00
3312;DHT22;1668;49.648;8.570;2023-05-07T11:20:55;24.40;1.00
3312;DHT22;1668;49.648;8.570;2023-05-07T11:26:45;24.60;1.00
3312;DHT22;1668;49.648;8.570;2023-05-07T11:29:14;24.50;1.00
3312;DHT22;1668;49.648;8.570;2023-05-07T11:31:41;24.50;1.00
3312;DHT22;1668;49.648;8.570;2023-05-07T11:34:08;24.60;1.00
3312;DHT22;1668;49.648;8.570;2023-05-07T11:36:42;24.60;1.00
3312;DHT22;1668;49.648;8.570;2023-05-07T11:39:30;24.70;1.00
3312;DHT22;1668;49.648;8.570;2023-05-07T11:42:00;24.70;1.00
3312;DHT22;1668;49.648;8.570;2023-05-07T11:44:41;24.80;1.00
3312;DHT22;1668;49.648;8.570;2023-05-07T11:47:08;25.00;1.00
3312;DHT22;1668;49.648;8.570;2023-05-07T11:49:36;25.20;1.00
3312;DHT22;1668;49.648;8.570;2023-05-07T11:52:03;25.30;1.00
3312;DHT22;1668;49.648;8.570;2023-05-07T11:54:35;25.30;1.00
3312;DHT22;1668;49.648;8.570;2023-05-07T11:57:04;25.40;1.00
3312;DHT22;1668;49.648;8.570;2023-05-07T11:59:38;25.60;1.00
3312;DHT22;1668;49.648;8.570;2023-05-07T12:02:06;25.80;1.00
3312;DHT22;1668;49.648;8.570;2023-05-07T12:04:32;25.80;1.00
3312;DHT22;1668;49.648;8.570;2023-05-07T12:06:59;26.00;1.00
3312;DHT22;1668;49.648;8.570;2023-05-07T12:09:27;26.20;1.00
3312;DHT22;1668;49.648;8.570;2023-05-07T12:11:54;26.30;1.00
3312;DHT22;1668;49.648;8.570;2023-05-07T12:14:27;26.40;1.00
3312;DHT22;1668;49.648;8.570;2023-05-07T12:16:54;26.50;1.00
3312;DHT22;1668;49.648;8.570;2023-05-07T12:19:22;26.70;1.00
3312;DHT22;1668;49.648;8.570;2023-05-07T12:21:49;26.80;1.00
3312;DHT22;1668;49.648;8.570;2023-05-07T12:24:17;27.00;1.00
3312;DHT22;1668;49.648;8.570;2023-05-07T12:26:47;27.00;1.00
3312;DHT22;1668;49.648;8.570;2023-05-07T12:29:15;26.90;1.00
3312;DHT22;1668;49.648;8.570;2023-05-07T12:31:44;27.00;1.00
3312;DHT22;1668;49.648;8.570;2023-05-07T12:34:11;27.20;1.00
3312;DHT22;1668;49.648;8.570;2023-05-07T12:36:38;27.40;1.00
3312;DHT22;1668;49.648;8.570;2023-05-07T12:39:06;27.50;1.00
3312;DHT22;1668;49.648;8.570;2023-05-07T12:41:36;27.50;1.00
3312;DHT22;1668;49.648;8.570;2023-05-07T12:44:18;27.60;1.00
3312;DHT22;1668;49.648;8.570;2023-05-07T12:46:48;27.70;1.00
3312;DHT22;1668;49.648;8.570;2023-05-07T12:49:15;27.70;1.00
3312;DHT22;1668;49.648;8.570;2023-05-07T12:51:43;27.70;1.00
3312;DHT22;1668;49.648;8.570;2023-05-07T12:54:10;27.40;1.00
3312;DHT22;1668;49.648;8.570;2023-05-07T12:56:37;27.30;1.00
3312;DHT22;1668;49.648;8.570;2023-05-07T12:59:04;27.20;1.00
3312;DHT22;1668;49.648;8.570;2023-05-07T13:01:33;27.00;1.00
3312;DHT22;1668;49.648;8.570;2023-05-07T13:04:03;27.00;1.00
3312;DHT22;1668;49.648;8.570;2023-05-07T13:06:31;26.70;1.00
3312;DHT22;1668;49.648;8.570;2023-05-07T13:08:58;26.40;1.00
3312;DHT22;1668;49.648;8.570;2023-05-07T13:11:24;26.30;1.00
3312;DHT22;1668;49.648;8.570;2023-05-07T13:13:51;26.30;1.00
3312;DHT22;1668;49.648;8.570;2023-05-07T13:16:18;26.20;1.00
3312;DHT22;1668;49.648;8.570;2023-05-07T13:18:45;26.10;1.00
3312;DHT22;1668;49.648;8.570;2023-05-07T13:21:14;26.10;1.00
3312;DHT22;1668;49.648;8.570;2023-05-07T13:23:40;26.10;1.00
3312;DHT22;1668;49.648;8.570;2023-05-07T13:26:07;25.90;1.00
3312;DHT22;1668;49.648;8.570;2023-05-07T13:28:34;25.80;1.00
3312;DHT22;1668;49.648;8.570;2023-05-07T13:31:01;25.70;1.00
3312;DHT22;1668;49.648;8.570;2023-05-07T13:33:28;25.60;1.00
3312;DHT22;1668;49.648;8.570;2023-05-07T13:35:55;25.60;1.00
3312;DHT22;1668;49.648;8.570;2023-05-07T13:38:24;25.50;1.00
3312;DHT22;1668;49.648;8.570;2023-05-07T13:40:51;25.40;1.00
3312;DHT22;1668;49.648;8.570;2023-05-07T13:43:18;25.30;1.00
3312;DHT22;1668;49.648;8.570;2023-05-07T13:45:45;25.30;1.00
3312;DHT22;1668;49.648;8.570;2023-05-07T13:48:12;25.20;1.00
3312;DHT22;1668;49.648;8.570;2023-05-07T13:50:39;25.10;1.00
3312;DHT22;1668;49.648;8.570;2023-05-07T13:53:07;25.10;1.00
3312;DHT22;1668;49.648;8.570;2023-05-07T13:55:36;25.00;1.00
3312;DHT22;1668;49.648;8.570;2023-05-07T13:58:03;24.80;1.00
3312;DHT22;1668;49.648;8.570;2023-05-07T14:00:29;24.70;1.00
3312;DHT22;1668;49.648;8.570;2023-05-07T14:02:56;24.50;1.00
3312;DHT22;1668;49.648;8.570;2023-05-07T14:05:24;24.40;1.00
3312;DHT22;1668;49.648;8.570;2023-05-07T14:07:52;24.30;1.00
3312;DHT22;1668;49.648;8.570;2023-05-07T14:10:19;24.30;1.00
3312;DHT22;1668;49.648;8.570;2023-05-07T14:12:47;24.20;1.00
3312;DHT22;1668;49.648;8.570;2023-05-07T14:15:15;24.20;1.00
3312;DHT22;1668;49.648;8.570;2023-05-07T14:17:42;24.10;1.00
3312;DHT22;1668;49.648;8.570;2023-05-07T14:20:10;24.00;1.00
3312;DHT22;1668;49.648;8.570;2023-05-07T14:22:37;24.00;1.00
3312;DHT22;1668;49.648;8.570;2023-05-07T14:25:05;23.90;1.00
3312;DHT22;1668;49.648;8.570;2023-05-07T14:27:32;23.80;1.00
3312;DHT22;1668;49.648;8.570;2023-05-07T14:30:01;23.80;1.00
3312;DHT22;1668;49.648;8.570;2023-05-07T14:32:28;23.70;1.00
3312;DHT22;1668;49.648;8.570;2023-05-07T14:34:55;23.60;1.00
3312;DHT22;1668;49.648;8.570;2023-05-07T14:37:21;23.60;1.00
3312;DHT22;1668;49.648;8.570;2023-05-07T14:39:48;23.60;1.00
3312;DHT22;1668;49.648;8.570;2023-05-07T14:42:15;23.50;1.00
3312;DHT22;1668;49.648;8.570;2023-05-07T14:44:42;23.50;1.00
3312;DHT22;1668;49.648;8.570;2023-05-07T14:47:12;23.40;1.00
3312;DHT22;1668;49.648;8.570;2023-05-07T14:49:39;23.30;1.00
3312;DHT22;1668;49.648;8.570;2023-05-07T14:52:06;23.30;1.00
3312;DHT22;1668;49.648;8.570;2023-05-07T14:54:36;23.30;1.00
3312;DHT22;1668;49.648;8.570;2023-05-07T14:57:05;23.30;1.00
3312;DHT22;1668;49.648;8.570;2023-05-07T14:59:32;23.30;1.00
3312;DHT22;1668;49.648;8.570;2023-05-07T15:01:59;23.20;1.00
3312;DHT22;1668;49.648;8.570;2023-05-07T15:04:27;23.00;1.00
3312;DHT22;1668;49.648;8.570;2023-05-07T15:06:54;22.70;1.00
3312;DHT22;1668;49.648;8.570;2023-05-07T15:09:21;22.40;1.00
3312;DHT22;1668;49.648;8.570;2023-05-07T15:11:48;21.80;1.00
3312;DHT22;1668;49.648;8.570;2023-05-07T15:14:15;21.30;99.90
3312;DHT22;1668;49.648;8.570;2023-05-07T15:16:42;21.00;99.90
3312;DHT22;1668;49.648;8.570;2023-05-07T15:19:10;20.90;1.00
3312;DHT22;1668;49.648;8.570;2023-05-07T15:21:39;20.60;1.00
3312;DHT22;1668;49.648;8.570;2023-05-07T15:24:06;20.40;99.90
3312;DHT22;1668;49.648;8.570;2023-05-07T15:26:34;19.80;1.00
3312;DHT22;1668;49.648;8.570;2023-05-07T15:29:00;19.60;99.90
3312;DHT22;1668;49.648;8.570;2023-05-07T15:31:28;19.20;99.90
3312;DHT22;1668;49.648;8.570;2023-05-07T15:33:55;19.00;1.00
3312;DHT22;1668;49.648;8.570;2023-05-07T15:36:22;18.80;1.00
3312;DHT22;1668;49.648;8.570;2023-05-07T15:38:51;18.70;1.00
3312;DHT22;1668;49.648;8.570;2023-05-07T15:41:18;18.50;1.00
3312;DHT22;1668;49.648;8.570;2023-05-07T15:43:48;18.40;99.90
3312;DHT22;1668;49.648;8.570;2023-05-07T15:46:17;18.20;99.90
3312;DHT22;1668;49.648;8.570;2023-05-07T15:48:45;18.10;1.00
3312;DHT22;1668;49.648;8.570;2023-05-07T15:51:12;18.00;99.90
3312;DHT22;1668;49.648;8.570;2023-05-07T15:53:39;17.90;99.90
3312;DHT22;1668;49.648;8.570;2023-05-07T15:56:07;17.70;1.00
3312;DHT22;1668;49.648;8.570;2023-05-07T15:58:34;17.70;1.00
3312;DHT22;1668;49.648;8.570;2023-05-07T16:01:02;17.50;1.00
3312;DHT22;1668;49.648;8.570;2023-05-07T16:03:29;17.40;16.90
3312;DHT22;1668;49.648;8.570;2023-05-07T16:05:56;17.30;25.70
3312;DHT22;1668;49.648;8.570;2023-05-07T16:08:25;17.30;95.60
3312;DHT22;1668;49.648;8.570;2023-05-07T16:10:52;17.20;99.90
3312;DHT22;1668;49.648;8.570;2023-05-07T16:13:21;17.10;99.90
3312;DHT22;1668;49.648;8.570;2023-05-07T16:15:49;17.10;99.90
3312;DHT22;1668;49.648;8.570;2023-05-07T16:18:21;17.00;99.90
3312;DHT22;1668;49.648;8.570;2023-05-07T16:20:48;17.00;99.90
3312;DHT22;1668;49.648;8.570;2023-05-07T16:23:15;16.90;99.90
3312;DHT22;1668;49.648;8.570;2023-05-07T16:25:42;16.80;99.90